sensor_id;sensor_type;location;lat;lon;timestamp;P1;durP1;ratioP1;P2;durP2;ratioP2
52608;SDS011;38503;48.544;12.142;2023-02-28T00:00:37;8.80;;;5.90;;
52608;SDS011;38503;48.544;12.142;2023-02-28T00:03:04;10.33;;;6.97;;
52608;SDS011;38503;48.544;12.142;2023-02-28T00:05:31;9.37;;;6.20;;
52608;SDS011;38503;48.544;12.142;2023-02-28T00:07:58;8.93;;;6.63;;
52608;SDS011;38503;48.544;12.142;2023-02-28T00:10:29;8.37;;;6.10;;
52608;SDS011;38503;48.544;12.142;2023-02-28T00:13:01;8.97;;;5.20;;
52608;SDS011;38503;48.544;12.142;2023-02-28T00:15:30;8.13;;;5.33;;
52608;SDS011;38503;48.544;12.142;2023-02-28T00:17:57;7.27;;;5.07;;
52608;SDS011;38503;48.544;12.142;2023-02-28T00:20:25;6.27;;;4.80;;
52608;SDS011;38503;48.544;12.142;2023-02-28T00:22:52;7.67;;;5.47;;
52608;SDS011;38503;48.544;12.142;2023-02-28T00:25:21;8.47;;;5.27;;
52608;SDS011;38503;48.544;12.142;2023-02-28T00:27:49;8.77;;;4.70;;
52608;SDS011;38503;48.544;12.142;2023-02-28T00:30:20;6.87;;;5.13;;
52608;SDS011;38503;48.544;12.142;2023-02-28T00:32:49;9.07;;;5.33;;
52608;SDS011;38503;48.544;12.142;2023-02-28T00:35:17;8.07;;;5.27;;
52608;SDS011;38503;48.544;12.142;2023-02-28T00:37:44;7.40;;;4.90;;
52608;SDS011;38503;48.544;12.142;2023-02-28T00:40:10;8.27;;;5.40;;
52608;SDS011;38503;48.544;12.142;2023-02-28T00:42:38;7.87;;;5.50;;
52608;SDS011;38503;48.544;12.142;2023-02-28T00:45:05;9.40;;;5.93;;
52608;SDS011;38503;48.544;12.142;2023-02-28T00:47:34;8.13;;;4.80;;
52608;SDS011;38503;48.544;12.142;2023-02-28T00:50:02;7.83;;;5.67;;
52608;SDS011;38503;48.544;12.142;2023-02-28T00:52:29;8.13;;;5.90;;
52608;SDS011;38503;48.544;12.142;2023-02-28T00:54:56;9.30;;;5.70;;
52608;SDS011;38503;48.544;12.142;2023-02-28T00:57:23;8.83;;;6.67;;
52608;SDS011;38503;48.544;12.142;2023-02-28T00:59:50;8.27;;;6.17;;
52608;SDS011;38503;48.544;12.142;2023-02-28T01:02:16;8.63;;;5.73;;
52608;SDS011;38503;48.544;12.142;2023-02-28T01:04:44;12.77;;;6.10;;
52608;SDS011;38503;48.544;12.142;2023-02-28T01:07:11;7.47;;;5.40;;
52608;SDS011;38503;48.544;12.142;2023-02-28T01:09:37;10.13;;;5.90;;
52608;SDS011;38503;48.544;12.142;2023-02-28T01:12:04;7.37;;;5.60;;
52608;SDS011;38503;48.544;12.142;2023-02-28T01:14:32;10.53;;;6.03;;
52608;SDS011;38503;48.544;12.142;2023-02-28T01:17:00;7.17;;;5.40;;
52608;SDS011;38503;48.544;12.142;2023-02-28T01:19:27;7.57;;;5.27;;
52608;SDS011;38503;48.544;12.142;2023-02-28T01:21:54;8.67;;;5.53;;
52608;SDS011;38503;48.544;12.142;2023-02-28T01:24:21;7.73;;;5.97;;
52608;SDS011;38503;48.544;12.142;2023-02-28T01:26:47;10.13;;;6.33;;
52608;SDS011;38503;48.544;12.142;2023-02-28T01:29:14;11.30;;;6.30;;
52608;SDS011;38503;48.544;12.142;2023-02-28T01:31:41;9.47;;;6.47;;
52608;SDS011;38503;48.544;12.142;2023-02-28T01:34:08;9.07;;;6.50;;
52608;SDS011;38503;48.544;12.142;2023-02-28T01:36:35;13.30;;;7.27;;
52608;SDS011;38503;48.544;12.142;2023-02-28T01:39:02;9.13;;;6.47;;
52608;SDS011;38503;48.544;12.142;2023-02-28T01:41:31;10.67;;;7.00;;
52608;SDS011;38503;48.544;12.142;2023-02-28T01:44:04;9.87;;;6.37;;
52608;SDS011;38503;48.544;12.142;2023-02-28T01:46:54;9.67;;;6.40;;
52608;SDS011;38503;48.544;12.142;2023-02-28T01:49:20;10.57;;;6.40;;
52608;SDS011;38503;48.544;12.142;2023-02-28T01:51:48;8.33;;;6.20;;
52608;SDS011;38503;48.544;12.142;2023-02-28T01:54:19;8.60;;;6.10;;
52608;SDS011;38503;48.544;12.142;2023-02-28T01:56:52;9.83;;;6.83;;
52608;SDS011;38503;48.544;12.142;2023-02-28T01:59:38;11.53;;;7.07;;
52608;SDS011;38503;48.544;12.142;2023-02-28T02:02:30;9.67;;;6.63;;
52608;SDS011;38503;48.544;12.142;2023-02-28T02:04:58;10.70;;;7.70;;
52608;SDS011;38503;48.544;12.142;2023-02-28T02:07:29;8.67;;;6.80;;
52608;SDS011;38503;48.544;12.142;2023-02-28T02:10:04;11.00;;;7.83;;
52608;SDS011;38503;48.544;12.142;2023-02-28T02:26:37;12.10;;;7.93;;
52608;SDS011;38503;48.544;12.142;2023-02-28T02:37:14;9.23;;;6.97;;
52608;SDS011;38503;48.544;12.142;2023-02-28T02:45:29;10.53;;;6.67;;
52608;SDS011;38503;48.544;12.142;2023-02-28T02:48:06;9.07;;;6.50;;
52608;SDS011;38503;48.544;12.142;2023-02-28T02:50:37;9.40;;;7.00;;
52608;SDS011;38503;48.544;12.142;2023-02-28T02:53:07;12.50;;;7.37;;
52608;SDS011;38503;48.544;12.142;2023-02-28T02:55:37;10.03;;;6.70;;
52608;SDS011;38503;48.544;12.142;2023-02-28T02:58:08;9.63;;;7.03;;
52608;SDS011;38503;48.544;12.142;2023-02-28T03:00:42;8.33;;;6.40;;
52608;SDS011;38503;48.544;12.142;2023-02-28T03:03:12;10.53;;;7.17;;
52608;SDS011;38503;48.544;12.142;2023-02-28T03:05:50;9.87;;;7.23;;
52608;SDS011;38503;48.544;12.142;2023-02-28T03:08:17;10.83;;;7.70;;
52608;SDS011;38503;48.544;12.142;2023-02-28T03:10:44;10.93;;;7.43;;
52608;SDS011;38503;48.544;12.142;2023-02-28T03:15:58;9.70;;;7.03;;
52608;SDS011;38503;48.544;12.142;2023-02-28T03:18:44;9.17;;;7.10;;
52608;SDS011;38503;48.544;12.142;2023-02-28T03:21:43;11.67;;;7.13;;
52608;SDS011;38503;48.544;12.142;2023-02-28T03:27:16;11.60;;;7.27;;
52608;SDS011;38503;48.544;12.142;2023-02-28T03:29:50;11.67;;;8.00;;
52608;SDS011;38503;48.544;12.142;2023-02-28T03:32:32;12.07;;;8.17;;
52608;SDS011;38503;48.544;12.142;2023-02-28T03:35:06;12.37;;;7.60;;
52608;SDS011;38503;48.544;12.142;2023-02-28T03:37:40;12.83;;;8.87;;
52608;SDS011;38503;48.544;12.142;2023-02-28T03:40:14;13.03;;;8.70;;
52608;SDS011;38503;48.544;12.142;2023-02-28T03:42:45;9.97;;;7.63;;
52608;SDS011;38503;48.544;12.142;2023-02-28T03:45:18;11.60;;;8.63;;
52608;SDS011;38503;48.544;12.142;2023-02-28T03:48:00;10.90;;;8.07;;
52608;SDS011;38503;48.544;12.142;2023-02-28T03:58:55;10.40;;;7.53;;
52608;SDS011;38503;48.544;12.142;2023-02-28T04:01:30;11.57;;;7.87;;
52608;SDS011;38503;48.544;12.142;2023-02-28T04:04:02;13.43;;;8.20;;
52608;SDS011;38503;48.544;12.142;2023-02-28T04:06:30;13.77;;;8.60;;
52608;SDS011;38503;48.544;12.142;2023-02-28T04:08:58;14.37;;;9.20;;
52608;SDS011;38503;48.544;12.142;2023-02-28T04:11:33;10.13;;;7.23;;
52608;SDS011;38503;48.544;12.142;2023-02-28T04:14:02;14.20;;;9.10;;
52608;SDS011;38503;48.544;12.142;2023-02-28T04:16:30;14.63;;;9.87;;
52608;SDS011;38503;48.544;12.142;2023-02-28T04:19:02;13.60;;;8.73;;
52608;SDS011;38503;48.544;12.142;2023-02-28T04:21:35;13.10;;;9.17;;
52608;SDS011;38503;48.544;12.142;2023-02-28T04:24:05;12.90;;;8.63;;
52608;SDS011;38503;48.544;12.142;2023-02-28T04:26:34;14.17;;;8.73;;
52608;SDS011;38503;48.544;12.142;2023-02-28T04:29:05;13.93;;;9.43;;
52608;SDS011;38503;48.544;12.142;2023-02-28T04:31:33;15.03;;;8.87;;
52608;SDS011;38503;48.544;12.142;2023-02-28T04:34:00;15.27;;;9.20;;
52608;SDS011;38503;48.544;12.142;2023-02-28T04:36:27;16.07;;;9.63;;
52608;SDS011;38503;48.544;12.142;2023-02-28T04:38:55;15.33;;;9.63;;
52608;SDS011;38503;48.544;12.142;2023-02-28T04:41:22;12.80;;;8.43;;
52608;SDS011;38503;48.544;12.142;2023-02-28T04:43:52;13.00;;;9.30;;
52608;SDS011;38503;48.544;12.142;2023-02-28T04:46:19;13.60;;;9.97;;
52608;SDS011;38503;48.544;12.142;2023-02-28T04:48:46;15.37;;;9.27;;
52608;SDS011;38503;48.544;12.142;2023-02-28T04:51:14;13.80;;;9.77;;
52608;SDS011;38503;48.544;12.142;2023-02-28T04:53:42;12.87;;;9.60;;
52608;SDS011;38503;48.544;12.142;2023-02-28T04:56:13;13.40;;;9.67;;
52608;SDS011;38503;48.544;12.142;2023-02-28T04:58:42;14.53;;;9.27;;
52608;SDS011;38503;48.544;12.142;2023-02-28T05:03:44;14.03;;;9.57;;
52608;SDS011;38503;48.544;12.142;2023-02-28T05:06:11;16.40;;;10.73;;
52608;SDS011;38503;48.544;12.142;2023-02-28T05:08:39;14.13;;;9.30;;
52608;SDS011;38503;48.544;12.142;2023-02-28T05:11:08;15.10;;;9.07;;
52608;SDS011;38503;48.544;12.142;2023-02-28T05:13:40;13.90;;;9.47;;
52608;SDS011;38503;48.544;12.142;2023-02-28T05:16:07;13.63;;;9.37;;
52608;SDS011;38503;48.544;12.142;2023-02-28T05:18:34;16.00;;;10.00;;
52608;SDS011;38503;48.544;12.142;2023-02-28T05:21:01;17.63;;;10.63;;
52608;SDS011;38503;48.544;12.142;2023-02-28T05:23:28;17.60;;;10.53;;
52608;SDS011;38503;48.544;12.142;2023-02-28T05:25:55;18.50;;;11.20;;
52608;SDS011;38503;48.544;12.142;2023-02-28T05:28:22;18.60;;;10.23;;
52608;SDS011;38503;48.544;12.142;2023-02-28T05:30:49;13.40;;;9.50;;
52608;SDS011;38503;48.544;12.142;2023-02-28T05:33:16;15.20;;;9.03;;
52608;SDS011;38503;48.544;12.142;2023-02-28T05:35:43;15.40;;;9.40;;
52608;SDS011;38503;48.544;12.142;2023-02-28T05:38:10;12.27;;;9.30;;
52608;SDS011;38503;48.544;12.142;2023-02-28T05:40:38;16.37;;;9.90;;
52608;SDS011;38503;48.544;12.142;2023-02-28T05:43:07;18.47;;;9.17;;
52608;SDS011;38503;48.544;12.142;2023-02-28T05:45:36;15.57;;;10.07;;
52608;SDS011;38503;48.544;12.142;2023-02-28T05:48:03;15.03;;;9.97;;
52608;SDS011;38503;48.544;12.142;2023-02-28T05:50:29;13.00;;;10.00;;
52608;SDS011;38503;48.544;12.142;2023-02-28T05:52:56;15.93;;;10.20;;
52608;SDS011;38503;48.544;12.142;2023-02-28T05:55:23;19.63;;;10.83;;
52608;SDS011;38503;48.544;12.142;2023-02-28T05:57:50;15.07;;;9.87;;
52608;SDS011;38503;48.544;12.142;2023-02-28T06:00:17;13.90;;;9.20;;
52608;SDS011;38503;48.544;12.142;2023-02-28T06:02:44;15.07;;;10.17;;
52608;SDS011;38503;48.544;12.142;2023-02-28T06:05:14;14.43;;;10.13;;
52608;SDS011;38503;48.544;12.142;2023-02-28T06:07:43;15.30;;;10.40;;
52608;SDS011;38503;48.544;12.142;2023-02-28T06:10:10;17.17;;;10.43;;
52608;SDS011;38503;48.544;12.142;2023-02-28T06:12:37;17.37;;;11.00;;
52608;SDS011;38503;48.544;12.142;2023-02-28T06:15:04;19.03;;;10.63;;
52608;SDS011;38503;48.544;12.142;2023-02-28T06:17:31;15.30;;;10.80;;
52608;SDS011;38503;48.544;12.142;2023-02-28T06:19:58;18.67;;;10.70;;
52608;SDS011;38503;48.544;12.142;2023-02-28T06:22:25;14.80;;;10.07;;
52608;SDS011;38503;48.544;12.142;2023-02-28T06:24:52;17.57;;;10.27;;
52608;SDS011;38503;48.544;12.142;2023-02-28T06:27:19;17.53;;;10.27;;
52608;SDS011;38503;48.544;12.142;2023-02-28T06:29:47;16.10;;;10.00;;
52608;SDS011;38503;48.544;12.142;2023-02-28T06:32:13;11.87;;;9.10;;
52608;SDS011;38503;48.544;12.142;2023-02-28T06:34:40;13.43;;;9.37;;
52608;SDS011;38503;48.544;12.142;2023-02-28T06:37:07;15.67;;;9.87;;
52608;SDS011;38503;48.544;12.142;2023-02-28T06:39:34;15.10;;;9.33;;
52608;SDS011;38503;48.544;12.142;2023-02-28T06:42:01;18.27;;;9.77;;
52608;SDS011;38503;48.544;12.142;2023-02-28T06:44:27;18.80;;;10.00;;
52608;SDS011;38503;48.544;12.142;2023-02-28T06:47:02;15.53;;;9.77;;
52608;SDS011;38503;48.544;12.142;2023-02-28T06:49:31;19.43;;;9.50;;
52608;SDS011;38503;48.544;12.142;2023-02-28T06:51:58;15.60;;;9.17;;
52608;SDS011;38503;48.544;12.142;2023-02-28T06:54:25;13.77;;;9.50;;
52608;SDS011;38503;48.544;12.142;2023-02-28T06:56:53;13.37;;;8.40;;
52608;SDS011;38503;48.544;12.142;2023-02-28T06:59:22;12.70;;;9.03;;
52608;SDS011;38503;48.544;12.142;2023-02-28T07:01:49;15.20;;;9.33;;
52608;SDS011;38503;48.544;12.142;2023-02-28T07:04:16;12.83;;;8.30;;
52608;SDS011;38503;48.544;12.142;2023-02-28T07:06:43;13.10;;;8.90;;
52608;SDS011;38503;48.544;12.142;2023-02-28T07:09:10;13.10;;;9.03;;
52608;SDS011;38503;48.544;12.142;2023-02-28T07:11:37;13.53;;;9.17;;
52608;SDS011;38503;48.544;12.142;2023-02-28T07:14:03;11.93;;;8.23;;
52608;SDS011;38503;48.544;12.142;2023-02-28T07:16:30;12.97;;;8.60;;
52608;SDS011;38503;48.544;12.142;2023-02-28T07:18:57;13.87;;;9.70;;
52608;SDS011;38503;48.544;12.142;2023-02-28T07:21:24;10.43;;;7.87;;
52608;SDS011;38503;48.544;12.142;2023-02-28T07:23:51;13.13;;;8.90;;
52608;SDS011;38503;48.544;12.142;2023-02-28T07:26:18;12.47;;;9.40;;
52608;SDS011;38503;48.544;12.142;2023-02-28T07:28:46;15.43;;;8.13;;
52608;SDS011;38503;48.544;12.142;2023-02-28T07:31:14;12.20;;;8.07;;
52608;SDS011;38503;48.544;12.142;2023-02-28T07:33:43;11.87;;;9.07;;
52608;SDS011;38503;48.544;12.142;2023-02-28T07:36:11;11.40;;;8.40;;
52608;SDS011;38503;48.544;12.142;2023-02-28T07:38:42;10.67;;;8.37;;
52608;SDS011;38503;48.544;12.142;2023-02-28T07:41:14;9.93;;;7.97;;
52608;SDS011;38503;48.544;12.142;2023-02-28T07:43:42;10.83;;;7.47;;
52608;SDS011;38503;48.544;12.142;2023-02-28T07:46:10;12.43;;;8.47;;
52608;SDS011;38503;48.544;12.142;2023-02-28T07:48:41;12.33;;;8.83;;
52608;SDS011;38503;48.544;12.142;2023-02-28T07:51:09;12.67;;;9.43;;
52608;SDS011;38503;48.544;12.142;2023-02-28T07:53:36;11.33;;;8.80;;
52608;SDS011;38503;48.544;12.142;2023-02-28T07:56:03;11.70;;;8.67;;
52608;SDS011;38503;48.544;12.142;2023-02-28T07:58:30;12.27;;;8.77;;
52608;SDS011;38503;48.544;12.142;2023-02-28T08:00:57;12.60;;;9.17;;
52608;SDS011;38503;48.544;12.142;2023-02-28T08:03:34;12.33;;;8.23;;
52608;SDS011;38503;48.544;12.142;2023-02-28T08:06:03;11.23;;;8.57;;
52608;SDS011;38503;48.544;12.142;2023-02-28T08:08:31;10.97;;;8.70;;
52608;SDS011;38503;48.544;12.142;2023-02-28T08:10:58;13.03;;;9.40;;
52608;SDS011;38503;48.544;12.142;2023-02-28T08:13:27;10.50;;;8.53;;
52608;SDS011;38503;48.544;12.142;2023-02-28T08:15:55;13.77;;;9.83;;
52608;SDS011;38503;48.544;12.142;2023-02-28T08:18:23;11.77;;;8.27;;
52608;SDS011;38503;48.544;12.142;2023-02-28T08:20:49;10.80;;;8.50;;
52608;SDS011;38503;48.544;12.142;2023-02-28T08:23:16;12.27;;;9.00;;
52608;SDS011;38503;48.544;12.142;2023-02-28T08:25:43;13.50;;;8.93;;
52608;SDS011;38503;48.544;12.142;2023-02-28T08:28:10;11.00;;;8.80;;
52608;SDS011;38503;48.544;12.142;2023-02-28T08:30:37;10.90;;;9.33;;
52608;SDS011;38503;48.544;12.142;2023-02-28T08:33:04;12.43;;;8.90;;
52608;SDS011;38503;48.544;12.142;2023-02-28T08:35:31;11.87;;;9.20;;
52608;SDS011;38503;48.544;12.142;2023-02-28T08:37:57;13.93;;;9.30;;
52608;SDS011;38503;48.544;12.142;2023-02-28T08:40:24;12.77;;;9.37;;
52608;SDS011;38503;48.544;12.142;2023-02-28T08:42:51;12.83;;;9.40;;
52608;SDS011;38503;48.544;12.142;2023-02-28T08:45:18;12.80;;;10.00;;
52608;SDS011;38503;48.544;12.142;2023-02-28T08:47:45;11.47;;;8.80;;
52608;SDS011;38503;48.544;12.142;2023-02-28T08:50:12;12.07;;;9.53;;
52608;SDS011;38503;48.544;12.142;2023-02-28T08:52:44;13.63;;;8.87;;
52608;SDS011;38503;48.544;12.142;2023-02-28T08:55:13;12.57;;;9.47;;
52608;SDS011;38503;48.544;12.142;2023-02-28T08:57:40;12.50;;;9.53;;
52608;SDS011;38503;48.544;12.142;2023-02-28T09:00:07;11.17;;;9.17;;
52608;SDS011;38503;48.544;12.142;2023-02-28T09:02:34;12.30;;;9.67;;
52608;SDS011;38503;48.544;12.142;2023-02-28T09:05:01;13.97;;;9.50;;
52608;SDS011;38503;48.544;12.142;2023-02-28T09:07:29;10.43;;;8.73;;
52608;SDS011;38503;48.544;12.142;2023-02-28T09:09:55;10.93;;;9.20;;
52608;SDS011;38503;48.544;12.142;2023-02-28T09:12:24;11.77;;;9.83;;
52608;SDS011;38503;48.544;12.142;2023-02-28T09:14:52;11.47;;;9.33;;
52608;SDS011;38503;48.544;12.142;2023-02-28T09:17:19;11.20;;;8.87;;
52608;SDS011;38503;48.544;12.142;2023-02-28T09:19:49;12.23;;;9.70;;
52608;SDS011;38503;48.544;12.142;2023-02-28T09:22:16;10.33;;;9.03;;
52608;SDS011;38503;48.544;12.142;2023-02-28T09:24:43;10.27;;;8.53;;
52608;SDS011;38503;48.544;12.142;2023-02-28T09:27:10;10.80;;;9.07;;
52608;SDS011;38503;48.544;12.142;2023-02-28T09:29:37;11.60;;;8.90;;
52608;SDS011;38503;48.544;12.142;2023-02-28T09:32:04;12.93;;;9.43;;
52608;SDS011;38503;48.544;12.142;2023-02-28T09:34:32;11.70;;;9.20;;
52608;SDS011;38503;48.544;12.142;2023-02-28T09:36:58;10.53;;;8.80;;
52608;SDS011;38503;48.544;12.142;2023-02-28T09:39:25;9.37;;;8.03;;
52608;SDS011;38503;48.544;12.142;2023-02-28T09:41:53;11.57;;;8.67;;
52608;SDS011;38503;48.544;12.142;2023-02-28T09:44:37;11.90;;;8.67;;
52608;SDS011;38503;48.544;12.142;2023-02-28T09:47:14;13.23;;;9.33;;
52608;SDS011;38503;48.544;12.142;2023-02-28T09:50:03;11.77;;;8.43;;
52608;SDS011;38503;48.544;12.142;2023-02-28T09:52:52;10.87;;;7.80;;
52608;SDS011;38503;48.544;12.142;2023-02-28T09:58:38;13.93;;;8.47;;
52608;SDS011;38503;48.544;12.142;2023-02-28T10:04:00;13.03;;;9.43;;
52608;SDS011;38503;48.544;12.142;2023-02-28T10:06:44;12.03;;;9.30;;
52608;SDS011;38503;48.544;12.142;2023-02-28T10:09:18;10.73;;;8.27;;
52608;SDS011;38503;48.544;12.142;2023-02-28T10:11:50;11.87;;;9.30;;
52608;SDS011;38503;48.544;12.142;2023-02-28T10:14:23;11.00;;;8.23;;
52608;SDS011;38503;48.544;12.142;2023-02-28T10:16:53;11.03;;;8.93;;
52608;SDS011;38503;48.544;12.142;2023-02-28T10:19:23;11.07;;;8.47;;
52608;SDS011;38503;48.544;12.142;2023-02-28T10:24:45;10.20;;;8.60;;
52608;SDS011;38503;48.544;12.142;2023-02-28T10:29:52;11.33;;;8.50;;
52608;SDS011;38503;48.544;12.142;2023-02-28T10:32:21;10.70;;;8.47;;
52608;SDS011;38503;48.544;12.142;2023-02-28T10:35:00;12.17;;;8.70;;
52608;SDS011;38503;48.544;12.142;2023-02-28T10:37:52;12.20;;;9.30;;
52608;SDS011;38503;48.544;12.142;2023-02-28T10:45:32;11.93;;;8.20;;
52608;SDS011;38503;48.544;12.142;2023-02-28T10:48:03;12.27;;;8.37;;
52608;SDS011;38503;48.544;12.142;2023-02-28T10:58:51;11.13;;;8.50;;
52608;SDS011;38503;48.544;12.142;2023-02-28T11:03:57;13.57;;;9.63;;
52608;SDS011;38503;48.544;12.142;2023-02-28T11:06:29;12.20;;;8.40;;
52608;SDS011;38503;48.544;12.142;2023-02-28T11:08:59;11.00;;;9.00;;
52608;SDS011;38503;48.544;12.142;2023-02-28T11:11:41;11.00;;;9.27;;
52608;SDS011;38503;48.544;12.142;2023-02-28T11:14:20;14.40;;;9.30;;
52608;SDS011;38503;48.544;12.142;2023-02-28T11:16:52;12.07;;;9.37;;
52608;SDS011;38503;48.544;12.142;2023-02-28T11:19:21;10.30;;;8.13;;
52608;SDS011;38503;48.544;12.142;2023-02-28T11:22:03;11.37;;;8.60;;
52608;SDS011;38503;48.544;12.142;2023-02-28T11:24:33;11.37;;;9.23;;
52608;SDS011;38503;48.544;12.142;2023-02-28T11:27:20;11.63;;;9.03;;
52608;SDS011;38503;48.544;12.142;2023-02-28T11:29:52;13.60;;;10.17;;
52608;SDS011;38503;48.544;12.142;2023-02-28T11:32:20;13.10;;;10.07;;
52608;SDS011;38503;48.544;12.142;2023-02-28T11:35:00;11.53;;;9.80;;
52608;SDS011;38503;48.544;12.142;2023-02-28T11:37:29;10.77;;;8.70;;
52608;SDS011;38503;48.544;12.142;2023-02-28T11:39:57;11.10;;;9.53;;
52608;SDS011;38503;48.544;12.142;2023-02-28T11:45:16;16.37;;;10.43;;
52608;SDS011;38503;48.544;12.142;2023-02-28T11:47:48;11.60;;;9.10;;
52608;SDS011;38503;48.544;12.142;2023-02-28T12:07:16;13.00;;;9.03;;
52608;SDS011;38503;48.544;12.142;2023-02-28T12:27:21;15.67;;;10.20;;
52608;SDS011;38503;48.544;12.142;2023-02-28T12:30:02;13.60;;;9.97;;
52608;SDS011;38503;48.544;12.142;2023-02-28T12:32:41;11.10;;;9.27;;
52608;SDS011;38503;48.544;12.142;2023-02-28T12:35:21;12.47;;;9.57;;
52608;SDS011;38503;48.544;12.142;2023-02-28T12:38:12;13.70;;;9.83;;
52608;SDS011;38503;48.544;12.142;2023-02-28T12:40:50;13.20;;;10.10;;
52608;SDS011;38503;48.544;12.142;2023-02-28T12:43:24;12.80;;;9.63;;
52608;SDS011;38503;48.544;12.142;2023-02-28T12:45:59;13.00;;;9.47;;
52608;SDS011;38503;48.544;12.142;2023-02-28T12:48:37;12.10;;;10.00;;
52608;SDS011;38503;48.544;12.142;2023-02-28T12:51:08;11.97;;;9.53;;
52608;SDS011;38503;48.544;12.142;2023-02-28T13:01:56;11.87;;;9.83;;
52608;SDS011;38503;48.544;12.142;2023-02-28T13:04:41;12.83;;;9.27;;
52608;SDS011;38503;48.544;12.142;2023-02-28T13:09:59;12.67;;;10.23;;
52608;SDS011;38503;48.544;12.142;2023-02-28T13:12:28;15.07;;;11.67;;
52608;SDS011;38503;48.544;12.142;2023-02-28T13:15:08;17.67;;;11.10;;
52608;SDS011;38503;48.544;12.142;2023-02-28T13:17:42;12.80;;;10.03;;
52608;SDS011;38503;48.544;12.142;2023-02-28T13:20:16;13.23;;;10.33;;
52608;SDS011;38503;48.544;12.142;2023-02-28T13:23:01;13.77;;;10.17;;
52608;SDS011;38503;48.544;12.142;2023-02-28T13:28:08;13.33;;;10.10;;
52608;SDS011;38503;48.544;12.142;2023-02-28T13:38:38;13.67;;;10.10;;
52608;SDS011;38503;48.544;12.142;2023-02-28T13:41:35;16.03;;;11.10;;
52608;SDS011;38503;48.544;12.142;2023-02-28T14:00:16;14.30;;;10.83;;
52608;SDS011;38503;48.544;12.142;2023-02-28T14:03:16;14.87;;;10.57;;
52608;SDS011;38503;48.544;12.142;2023-02-28T14:11:37;16.83;;;11.60;;
52608;SDS011;38503;48.544;12.142;2023-02-28T14:14:06;15.30;;;10.83;;
52608;SDS011;38503;48.544;12.142;2023-02-28T14:16:42;13.93;;;10.63;;
52608;SDS011;38503;48.544;12.142;2023-02-28T14:19:24;18.43;;;12.00;;
52608;SDS011;38503;48.544;12.142;2023-02-28T14:22:01;16.03;;;10.33;;
52608;SDS011;38503;48.544;12.142;2023-02-28T14:25:08;14.50;;;11.27;;
52608;SDS011;38503;48.544;12.142;2023-02-28T14:27:50;17.07;;;10.57;;
52608;SDS011;38503;48.544;12.142;2023-02-28T14:33:26;13.33;;;10.80;;
52608;SDS011;38503;48.544;12.142;2023-02-28T14:38:55;16.33;;;11.03;;
52608;SDS011;38503;48.544;12.142;2023-02-28T14:41:31;13.90;;;11.00;;
52608;SDS011;38503;48.544;12.142;2023-02-28T14:44:15;16.33;;;11.83;;
52608;SDS011;38503;48.544;12.142;2023-02-28T14:46:48;16.23;;;11.57;;
52608;SDS011;38503;48.544;12.142;2023-02-28T14:51:50;15.73;;;10.97;;
52608;SDS011;38503;48.544;12.142;2023-02-28T14:54:46;15.80;;;11.00;;
52608;SDS011;38503;48.544;12.142;2023-02-28T14:57:22;14.13;;;10.67;;
52608;SDS011;38503;48.544;12.142;2023-02-28T14:59:58;16.37;;;10.97;;
52608;SDS011;38503;48.544;12.142;2023-02-28T15:02:33;16.33;;;11.27;;
52608;SDS011;38503;48.544;12.142;2023-02-28T15:05:10;14.93;;;10.73;;
52608;SDS011;38503;48.544;12.142;2023-02-28T15:07:46;19.07;;;11.77;;
52608;SDS011;38503;48.544;12.142;2023-02-28T15:16:44;13.70;;;10.80;;
52608;SDS011;38503;48.544;12.142;2023-02-28T15:18:51;15.03;;;11.77;;
52608;SDS011;38503;48.544;12.142;2023-02-28T15:21:23;16.27;;;11.70;;
52608;SDS011;38503;48.544;12.142;2023-02-28T15:23:58;16.93;;;11.97;;
52608;SDS011;38503;48.544;12.142;2023-02-28T15:26:32;13.17;;;10.70;;
52608;SDS011;38503;48.544;12.142;2023-02-28T15:29:06;17.03;;;12.77;;
52608;SDS011;38503;48.544;12.142;2023-02-28T15:31:48;16.23;;;12.30;;
52608;SDS011;38503;48.544;12.142;2023-02-28T15:34:38;14.93;;;11.47;;
52608;SDS011;38503;48.544;12.142;2023-02-28T15:40:04;15.77;;;11.97;;
52608;SDS011;38503;48.544;12.142;2023-02-28T15:42:31;18.60;;;12.43;;
52608;SDS011;38503;48.544;12.142;2023-02-28T15:44:58;18.37;;;11.73;;
52608;SDS011;38503;48.544;12.142;2023-02-28T15:47:28;18.17;;;12.33;;
52608;SDS011;38503;48.544;12.142;2023-02-28T15:50:00;18.80;;;12.27;;
52608;SDS011;38503;48.544;12.142;2023-02-28T15:52:31;17.57;;;12.97;;
52608;SDS011;38503;48.544;12.142;2023-02-28T15:55:35;15.20;;;12.70;;
52608;SDS011;38503;48.544;12.142;2023-02-28T15:57:56;18.93;;;12.13;;
52608;SDS011;38503;48.544;12.142;2023-02-28T16:00:27;19.60;;;12.43;;
52608;SDS011;38503;48.544;12.142;2023-02-28T16:02:55;17.77;;;12.80;;
52608;SDS011;38503;48.544;12.142;2023-02-28T16:05:23;20.87;;;12.67;;
52608;SDS011;38503;48.544;12.142;2023-02-28T16:07:58;20.47;;;13.40;;
52608;SDS011;38503;48.544;12.142;2023-02-28T16:10:26;20.27;;;14.20;;
52608;SDS011;38503;48.544;12.142;2023-02-28T16:12:54;18.90;;;13.00;;
52608;SDS011;38503;48.544;12.142;2023-02-28T16:15:24;18.80;;;13.83;;
52608;SDS011;38503;48.544;12.142;2023-02-28T16:17:53;19.27;;;14.07;;
52608;SDS011;38503;48.544;12.142;2023-02-28T16:20:27;19.90;;;14.23;;
52608;SDS011;38503;48.544;12.142;2023-02-28T16:22:56;21.93;;;15.43;;
52608;SDS011;38503;48.544;12.142;2023-02-28T16:25:29;20.73;;;14.30;;
52608;SDS011;38503;48.544;12.142;2023-02-28T16:28:01;19.27;;;14.07;;
52608;SDS011;38503;48.544;12.142;2023-02-28T16:30:29;20.10;;;12.20;;
52608;SDS011;38503;48.544;12.142;2023-02-28T16:32:59;18.47;;;13.50;;
52608;SDS011;38503;48.544;12.142;2023-02-28T16:35:26;19.97;;;13.80;;
52608;SDS011;38503;48.544;12.142;2023-02-28T16:37:53;18.43;;;12.63;;
52608;SDS011;38503;48.544;12.142;2023-02-28T16:40:22;18.13;;;13.03;;
52608;SDS011;38503;48.544;12.142;2023-02-28T16:42:52;18.17;;;13.17;;
52608;SDS011;38503;48.544;12.142;2023-02-28T16:45:24;21.37;;;13.37;;
52608;SDS011;38503;48.544;12.142;2023-02-28T16:47:52;18.47;;;13.23;;
52608;SDS011;38503;48.544;12.142;2023-02-28T16:50:21;19.73;;;14.30;;
52608;SDS011;38503;48.544;12.142;2023-02-28T16:52:53;21.20;;;13.47;;
52608;SDS011;38503;48.544;12.142;2023-02-28T16:55:21;19.07;;;13.87;;
52608;SDS011;38503;48.544;12.142;2023-02-28T16:57:53;22.03;;;14.93;;
52608;SDS011;38503;48.544;12.142;2023-02-28T17:00:22;17.10;;;13.53;;
52608;SDS011;38503;48.544;12.142;2023-02-28T17:02:49;19.33;;;13.57;;
52608;SDS011;38503;48.544;12.142;2023-02-28T17:05:17;20.77;;;14.17;;
52608;SDS011;38503;48.544;12.142;2023-02-28T17:07:45;19.30;;;13.90;;
52608;SDS011;38503;48.544;12.142;2023-02-28T17:10:22;20.97;;;14.00;;
52608;SDS011;38503;48.544;12.142;2023-02-28T17:12:51;23.63;;;15.73;;
52608;SDS011;38503;48.544;12.142;2023-02-28T17:15:21;20.60;;;15.40;;
52608;SDS011;38503;48.544;12.142;2023-02-28T17:17:48;28.03;;;18.17;;
52608;SDS011;38503;48.544;12.142;2023-02-28T17:20:16;24.67;;;15.97;;
52608;SDS011;38503;48.544;12.142;2023-02-28T17:22:50;24.93;;;16.40;;
52608;SDS011;38503;48.544;12.142;2023-02-28T17:25:18;24.47;;;16.73;;
52608;SDS011;38503;48.544;12.142;2023-02-28T17:27:45;23.07;;;16.10;;
52608;SDS011;38503;48.544;12.142;2023-02-28T17:30:16;24.33;;;15.90;;